sensor_id;sensor_type;location;lat;lon;timestamp;P1;durP1;ratioP1;P2;durP2;ratioP2
20824;SDS011;10573;50.936;6.978;2023-02-28T00:02:19;3.17;;;2.10;;
20824;SDS011;10573;50.936;6.978;2023-02-28T00:04:45;6.33;;;2.40;;
20824;SDS011;10573;50.936;6.978;2023-02-28T00:07:17;3.90;;;2.35;;
20824;SDS011;10573;50.936;6.978;2023-02-28T00:09:43;4.70;;;2.45;;
20824;SDS011;10573;50.936;6.978;2023-02-28T00:12:09;3.97;;;2.10;;
20824;SDS011;10573;50.936;6.978;2023-02-28T00:14:35;4.25;;;2.20;;
20824;SDS011;10573;50.936;6.978;2023-02-28T00:17:01;4.60;;;2.33;;
20824;SDS011;10573;50.936;6.978;2023-02-28T00:19:27;2.73;;;2.10;;
20824;SDS011;10573;50.936;6.978;2023-02-28T00:21:52;3.37;;;2.30;;
20824;SDS011;10573;50.936;6.978;2023-02-28T00:24:18;4.97;;;2.43;;
20824;SDS011;10573;50.936;6.978;2023-02-28T00:26:43;3.77;;;1.93;;
20824;SDS011;10573;50.936;6.978;2023-02-28T00:29:09;3.33;;;2.20;;
20824;SDS011;10573;50.936;6.978;2023-02-28T00:31:35;3.22;;;2.20;;
20824;SDS011;10573;50.936;6.978;2023-02-28T00:34:00;4.23;;;2.30;;
20824;SDS011;10573;50.936;6.978;2023-02-28T00:36:25;3.23;;;1.87;;
20824;SDS011;10573;50.936;6.978;2023-02-28T00:38:51;3.33;;;1.70;;
20824;SDS011;10573;50.936;6.978;2023-02-28T00:41:17;5.13;;;2.20;;
20824;SDS011;10573;50.936;6.978;2023-02-28T00:43:42;6.70;;;2.60;;
20824;SDS011;10573;50.936;6.978;2023-02-28T00:46:08;6.17;;;2.20;;
20824;SDS011;10573;50.936;6.978;2023-02-28T00:48:33;3.90;;;2.00;;
20824;SDS011;10573;50.936;6.978;2023-02-28T00:50:59;4.67;;;2.20;;
20824;SDS011;10573;50.936;6.978;2023-02-28T00:53:25;4.20;;;1.80;;
20824;SDS011;10573;50.936;6.978;2023-02-28T00:55:50;4.90;;;2.03;;
20824;SDS011;10573;50.936;6.978;2023-02-28T00:58:16;4.87;;;1.80;;
20824;SDS011;10573;50.936;6.978;2023-02-28T01:00:41;3.83;;;2.20;;
20824;SDS011;10573;50.936;6.978;2023-02-28T01:03:06;3.97;;;1.90;;
20824;SDS011;10573;50.936;6.978;2023-02-28T01:05:32;4.22;;;2.13;;
20824;SDS011;10573;50.936;6.978;2023-02-28T01:07:57;4.00;;;1.90;;
20824;SDS011;10573;50.936;6.978;2023-02-28T01:10:23;5.77;;;2.10;;
20824;SDS011;10573;50.936;6.978;2023-02-28T01:12:48;3.27;;;1.87;;
20824;SDS011;10573;50.936;6.978;2023-02-28T01:15:13;2.53;;;1.90;;
20824;SDS011;10573;50.936;6.978;2023-02-28T01:17:39;2.70;;;1.90;;
20824;SDS011;10573;50.936;6.978;2023-02-28T01:20:04;5.10;;;2.22;;
20824;SDS011;10573;50.936;6.978;2023-02-28T01:22:30;3.35;;;1.92;;
20824;SDS011;10573;50.936;6.978;2023-02-28T01:24:56;3.35;;;1.67;;
20824;SDS011;10573;50.936;6.978;2023-02-28T01:27:21;2.53;;;1.75;;
20824;SDS011;10573;50.936;6.978;2023-02-28T01:29:46;3.13;;;1.80;;
20824;SDS011;10573;50.936;6.978;2023-02-28T01:32:12;4.13;;;2.00;;
20824;SDS011;10573;50.936;6.978;2023-02-28T01:34:37;4.30;;;1.80;;
20824;SDS011;10573;50.936;6.978;2023-02-28T01:37:03;5.47;;;2.20;;
20824;SDS011;10573;50.936;6.978;2023-02-28T01:39:28;4.28;;;1.85;;
20824;SDS011;10573;50.936;6.978;2023-02-28T01:41:54;3.60;;;1.60;;
20824;SDS011;10573;50.936;6.978;2023-02-28T01:47:22;4.10;;;2.00;;
20824;SDS011;10573;50.936;6.978;2023-02-28T01:49:50;4.68;;;2.13;;
20824;SDS011;10573;50.936;6.978;2023-02-28T01:52:16;3.35;;;2.00;;
20824;SDS011;10573;50.936;6.978;2023-02-28T01:54:44;4.93;;;2.03;;
20824;SDS011;10573;50.936;6.978;2023-02-28T01:57:16;3.70;;;2.22;;
20824;SDS011;10573;50.936;6.978;2023-02-28T01:59:48;3.53;;;1.95;;
20824;SDS011;10573;50.936;6.978;2023-02-28T02:02:18;3.80;;;2.00;;
20824;SDS011;10573;50.936;6.978;2023-02-28T02:04:56;3.80;;;1.97;;
20824;SDS011;10573;50.936;6.978;2023-02-28T02:07:26;3.58;;;1.90;;
20824;SDS011;10573;50.936;6.978;2023-02-28T02:09:59;4.75;;;1.88;;
20824;SDS011;10573;50.936;6.978;2023-02-28T02:15:17;3.05;;;2.13;;
20824;SDS011;10573;50.936;6.978;2023-02-28T02:35:05;2.83;;;1.80;;
20824;SDS011;10573;50.936;6.978;2023-02-28T02:40:20;2.78;;;1.83;;
20824;SDS011;10573;50.936;6.978;2023-02-28T02:43:08;4.32;;;1.90;;
20824;SDS011;10573;50.936;6.978;2023-02-28T02:48:13;3.00;;;1.80;;
20824;SDS011;10573;50.936;6.978;2023-02-28T02:50:58;4.28;;;1.85;;
20824;SDS011;10573;50.936;6.978;2023-02-28T02:53:30;2.50;;;1.80;;
20824;SDS011;10573;50.936;6.978;2023-02-28T02:56:00;3.15;;;1.75;;
20824;SDS011;10573;50.936;6.978;2023-02-28T02:58:30;3.15;;;2.13;;
20824;SDS011;10573;50.936;6.978;2023-02-28T03:01:00;2.92;;;2.15;;
20824;SDS011;10573;50.936;6.978;2023-02-28T03:03:28;3.15;;;1.90;;
20824;SDS011;10573;50.936;6.978;2023-02-28T03:06:00;2.78;;;1.88;;
20824;SDS011;10573;50.936;6.978;2023-02-28T03:08:26;3.40;;;1.83;;
20824;SDS011;10573;50.936;6.978;2023-02-28T03:11:00;2.63;;;1.70;;
20824;SDS011;10573;50.936;6.978;2023-02-28T03:17:11;3.80;;;1.83;;
20824;SDS011;10573;50.936;6.978;2023-02-28T03:21:57;3.53;;;1.60;;
20824;SDS011;10573;50.936;6.978;2023-02-28T03:27:52;2.58;;;2.10;;
20824;SDS011;10573;50.936;6.978;2023-02-28T03:30:35;2.50;;;1.80;;
20824;SDS011;10573;50.936;6.978;2023-02-28T03:33:32;4.00;;;1.75;;
20824;SDS011;10573;50.936;6.978;2023-02-28T03:36:10;1.92;;;1.50;;
20824;SDS011;10573;50.936;6.978;2023-02-28T03:38:44;2.30;;;1.90;;
20824;SDS011;10573;50.936;6.978;2023-02-28T03:41:25;3.65;;;1.70;;
20824;SDS011;10573;50.936;6.978;2023-02-28T03:43:58;6.35;;;2.00;;
20824;SDS011;10573;50.936;6.978;2023-02-28T03:46:28;2.45;;;1.88;;
20824;SDS011;10573;50.936;6.978;2023-02-28T03:49:02;3.95;;;1.70;;
20824;SDS011;10573;50.936;6.978;2023-02-28T03:51:47;3.65;;;1.60;;
20824;SDS011;10573;50.936;6.978;2023-02-28T03:54:19;2.60;;;1.70;;
20824;SDS011;10573;50.936;6.978;2023-02-28T03:59:56;1.98;;;1.63;;
20824;SDS011;10573;50.936;6.978;2023-02-28T04:02:25;3.17;;;1.60;;
20824;SDS011;10573;50.936;6.978;2023-02-28T04:04:51;4.07;;;1.80;;
20824;SDS011;10573;50.936;6.978;2023-02-28T04:07:16;3.90;;;1.50;;
20824;SDS011;10573;50.936;6.978;2023-02-28T04:09:43;2.97;;;1.63;;
20824;SDS011;10573;50.936;6.978;2023-02-28T04:12:08;2.40;;;1.80;;
20824;SDS011;10573;50.936;6.978;2023-02-28T04:14:34;2.97;;;1.77;;
20824;SDS011;10573;50.936;6.978;2023-02-28T04:17:00;2.10;;;1.70;;
20824;SDS011;10573;50.936;6.978;2023-02-28T04:19:25;4.07;;;1.67;;
20824;SDS011;10573;50.936;6.978;2023-02-28T04:21:52;3.75;;;1.58;;
20824;SDS011;10573;50.936;6.978;2023-02-28T04:24:19;4.57;;;2.10;;
20824;SDS011;10573;50.936;6.978;2023-02-28T04:26:47;4.10;;;2.05;;
20824;SDS011;10573;50.936;6.978;2023-02-28T04:29:18;2.45;;;1.90;;
20824;SDS011;10573;50.936;6.978;2023-02-28T04:31:48;5.68;;;1.90;;
20824;SDS011;10573;50.936;6.978;2023-02-28T04:34:14;2.65;;;2.00;;
20824;SDS011;10573;50.936;6.978;2023-02-28T04:36:39;4.10;;;2.10;;
20824;SDS011;10573;50.936;6.978;2023-02-28T04:39:05;3.03;;;2.03;;
20824;SDS011;10573;50.936;6.978;2023-02-28T04:41:30;3.50;;;2.00;;
20824;SDS011;10573;50.936;6.978;2023-02-28T04:43:56;6.07;;;2.17;;
20824;SDS011;10573;50.936;6.978;2023-02-28T04:46:21;3.80;;;2.30;;
20824;SDS011;10573;50.936;6.978;2023-02-28T04:48:48;3.55;;;2.08;;
20824;SDS011;10573;50.936;6.978;2023-02-28T04:51:14;2.83;;;2.10;;
20824;SDS011;10573;50.936;6.978;2023-02-28T04:53:41;3.20;;;2.08;;
20824;SDS011;10573;50.936;6.978;2023-02-28T04:56:07;4.18;;;2.08;;
20824;SDS011;10573;50.936;6.978;2023-02-28T04:58:36;2.80;;;2.22;;
20824;SDS011;10573;50.936;6.978;2023-02-28T05:01:05;2.95;;;2.00;;
20824;SDS011;10573;50.936;6.978;2023-02-28T05:03:52;3.20;;;2.37;;
20824;SDS011;10573;50.936;6.978;2023-02-28T05:06:19;5.18;;;2.05;;
20824;SDS011;10573;50.936;6.978;2023-02-28T05:08:45;3.28;;;2.20;;
20824;SDS011;10573;50.936;6.978;2023-02-28T05:11:15;6.50;;;1.87;;
20824;SDS011;10573;50.936;6.978;2023-02-28T05:13:43;1.98;;;1.77;;
20824;SDS011;10573;50.936;6.978;2023-02-28T05:16:09;3.13;;;2.30;;
20824;SDS011;10573;50.936;6.978;2023-02-28T05:18:35;2.50;;;1.92;;
20824;SDS011;10573;50.936;6.978;2023-02-28T05:21:00;2.87;;;1.60;;
20824;SDS011;10573;50.936;6.978;2023-02-28T05:23:28;3.30;;;2.05;;
20824;SDS011;10573;50.936;6.978;2023-02-28T05:25:54;4.72;;;2.10;;
20824;SDS011;10573;50.936;6.978;2023-02-28T05:28:20;4.93;;;2.27;;
20824;SDS011;10573;50.936;6.978;2023-02-28T05:30:46;3.03;;;1.97;;
20824;SDS011;10573;50.936;6.978;2023-02-28T05:33:12;2.63;;;1.85;;
20824;SDS011;10573;50.936;6.978;2023-02-28T05:35:39;4.07;;;1.80;;
20824;SDS011;10573;50.936;6.978;2023-02-28T05:38:05;3.67;;;2.10;;
20824;SDS011;10573;50.936;6.978;2023-02-28T05:40:30;3.03;;;2.07;;
20824;SDS011;10573;50.936;6.978;2023-02-28T05:42:56;3.03;;;2.13;;
20824;SDS011;10573;50.936;6.978;2023-02-28T05:45:21;4.00;;;1.90;;
20824;SDS011;10573;50.936;6.978;2023-02-28T05:47:46;3.30;;;1.70;;
20824;SDS011;10573;50.936;6.978;2023-02-28T05:50:12;2.75;;;1.98;;
20824;SDS011;10573;50.936;6.978;2023-02-28T05:52:37;3.60;;;1.77;;
20824;SDS011;10573;50.936;6.978;2023-02-28T05:55:03;2.70;;;1.97;;
20824;SDS011;10573;50.936;6.978;2023-02-28T05:57:29;3.90;;;1.70;;
20824;SDS011;10573;50.936;6.978;2023-02-28T05:59:54;3.90;;;2.30;;
20824;SDS011;10573;50.936;6.978;2023-02-28T06:02:19;2.23;;;2.03;;
20824;SDS011;10573;50.936;6.978;2023-02-28T06:04:45;2.60;;;1.90;;
20824;SDS011;10573;50.936;6.978;2023-02-28T06:07:11;2.23;;;1.80;;
20824;SDS011;10573;50.936;6.978;2023-02-28T06:09:37;2.53;;;1.90;;
20824;SDS011;10573;50.936;6.978;2023-02-28T06:12:03;2.80;;;2.08;;
20824;SDS011;10573;50.936;6.978;2023-02-28T06:14:31;5.40;;;2.58;;
20824;SDS011;10573;50.936;6.978;2023-02-28T06:16:58;2.90;;;2.08;;
20824;SDS011;10573;50.936;6.978;2023-02-28T06:19:25;4.78;;;2.22;;
20824;SDS011;10573;50.936;6.978;2023-02-28T06:21:50;8.40;;;4.13;;
20824;SDS011;10573;50.936;6.978;2023-02-28T06:24:20;6.28;;;2.42;;
20824;SDS011;10573;50.936;6.978;2023-02-28T06:26:46;3.22;;;2.28;;
20824;SDS011;10573;50.936;6.978;2023-02-28T06:29:12;4.03;;;2.20;;
20824;SDS011;10573;50.936;6.978;2023-02-28T06:31:43;4.43;;;2.27;;
20824;SDS011;10573;50.936;6.978;2023-02-28T06:34:10;3.90;;;1.95;;
20824;SDS011;10573;50.936;6.978;2023-02-28T06:36:37;2.97;;;2.15;;
20824;SDS011;10573;50.936;6.978;2023-02-28T06:39:06;4.15;;;2.42;;
20824;SDS011;10573;50.936;6.978;2023-02-28T06:41:31;3.00;;;2.00;;
20824;SDS011;10573;50.936;6.978;2023-02-28T06:44:02;4.47;;;2.10;;
20824;SDS011;10573;50.936;6.978;2023-02-28T06:46:36;4.53;;;2.70;;
20824;SDS011;10573;50.936;6.978;2023-02-28T06:49:03;3.20;;;2.30;;
20824;SDS011;10573;50.936;6.978;2023-02-28T06:51:28;4.15;;;2.42;;
20824;SDS011;10573;50.936;6.978;2023-02-28T06:53:54;3.67;;;2.28;;
20824;SDS011;10573;50.936;6.978;2023-02-28T06:56:19;4.80;;;2.10;;
20824;SDS011;10573;50.936;6.978;2023-02-28T06:58:46;2.75;;;2.22;;
20824;SDS011;10573;50.936;6.978;2023-02-28T07:01:15;2.65;;;1.98;;
20824;SDS011;10573;50.936;6.978;2023-02-28T07:03:42;3.03;;;2.22;;
20824;SDS011;10573;50.936;6.978;2023-02-28T07:06:07;3.60;;;2.33;;
20824;SDS011;10573;50.936;6.978;2023-02-28T07:08:33;2.17;;;1.90;;
20824;SDS011;10573;50.936;6.978;2023-02-28T07:10:59;2.97;;;2.03;;
20824;SDS011;10573;50.936;6.978;2023-02-28T07:13:24;3.40;;;2.50;;
20824;SDS011;10573;50.936;6.978;2023-02-28T07:15:54;2.97;;;2.13;;
20824;SDS011;10573;50.936;6.978;2023-02-28T07:18:23;4.20;;;2.38;;
20824;SDS011;10573;50.936;6.978;2023-02-28T07:20:49;2.72;;;1.77;;
20824;SDS011;10573;50.936;6.978;2023-02-28T07:23:15;4.32;;;2.00;;
20824;SDS011;10573;50.936;6.978;2023-02-28T07:25:40;3.42;;;2.08;;
20824;SDS011;10573;50.936;6.978;2023-02-28T07:28:05;2.50;;;2.03;;
20824;SDS011;10573;50.936;6.978;2023-02-28T07:30:31;2.27;;;2.00;;
20824;SDS011;10573;50.936;6.978;2023-02-28T07:32:56;6.70;;;2.23;;
20824;SDS011;10573;50.936;6.978;2023-02-28T07:35:22;4.47;;;2.20;;
20824;SDS011;10573;50.936;6.978;2023-02-28T07:37:47;5.18;;;2.70;;
20824;SDS011;10573;50.936;6.978;2023-02-28T07:40:13;3.23;;;2.20;;
20824;SDS011;10573;50.936;6.978;2023-02-28T07:42:40;3.95;;;2.13;;
20824;SDS011;10573;50.936;6.978;2023-02-28T07:45:07;3.60;;;2.10;;
20824;SDS011;10573;50.936;6.978;2023-02-28T07:47:33;3.13;;;2.10;;
20824;SDS011;10573;50.936;6.978;2023-02-28T07:49:58;2.33;;;1.93;;
20824;SDS011;10573;50.936;6.978;2023-02-28T07:52:24;3.40;;;2.10;;
20824;SDS011;10573;50.936;6.978;2023-02-28T07:54:50;3.92;;;2.20;;
20824;SDS011;10573;50.936;6.978;2023-02-28T07:57:16;3.20;;;2.00;;
20824;SDS011;10573;50.936;6.978;2023-02-28T07:59:42;2.88;;;1.85;;
20824;SDS011;10573;50.936;6.978;2023-02-28T08:02:14;2.33;;;1.70;;
20824;SDS011;10573;50.936;6.978;2023-02-28T08:04:41;3.73;;;1.47;;
20824;SDS011;10573;50.936;6.978;2023-02-28T08:07:06;3.27;;;1.80;;
20824;SDS011;10573;50.936;6.978;2023-02-28T08:09:33;7.53;;;1.95;;
20824;SDS011;10573;50.936;6.978;2023-02-28T08:11:59;2.05;;;1.35;;
20824;SDS011;10573;50.936;6.978;2023-02-28T08:14:24;2.17;;;1.60;;
20824;SDS011;10573;50.936;6.978;2023-02-28T08:16:50;3.43;;;1.60;;
20824;SDS011;10573;50.936;6.978;2023-02-28T08:19:15;2.60;;;1.40;;
20824;SDS011;10573;50.936;6.978;2023-02-28T08:21:41;1.90;;;1.57;;
20824;SDS011;10573;50.936;6.978;2023-02-28T08:24:06;2.53;;;1.50;;
20824;SDS011;10573;50.936;6.978;2023-02-28T08:26:32;3.20;;;1.60;;
20824;SDS011;10573;50.936;6.978;2023-02-28T08:28:57;3.07;;;1.70;;
20824;SDS011;10573;50.936;6.978;2023-02-28T08:31:23;3.05;;;1.40;;
20824;SDS011;10573;50.936;6.978;2023-02-28T08:33:48;2.90;;;1.55;;
20824;SDS011;10573;50.936;6.978;2023-02-28T08:36:16;1.85;;;1.58;;
20824;SDS011;10573;50.936;6.978;2023-02-28T08:38:42;2.77;;;1.40;;
20824;SDS011;10573;50.936;6.978;2023-02-28T08:41:09;3.30;;;1.23;;
20824;SDS011;10573;50.936;6.978;2023-02-28T08:43:36;2.53;;;1.48;;
20824;SDS011;10573;50.936;6.978;2023-02-28T08:46:02;2.53;;;1.42;;
20824;SDS011;10573;50.936;6.978;2023-02-28T08:48:29;2.28;;;1.50;;
20824;SDS011;10573;50.936;6.978;2023-02-28T08:53:22;2.70;;;1.60;;
20824;SDS011;10573;50.936;6.978;2023-02-28T08:55:55;2.20;;;1.70;;
20824;SDS011;10573;50.936;6.978;2023-02-28T08:58:21;3.25;;;1.90;;
20824;SDS011;10573;50.936;6.978;2023-02-28T09:00:46;2.53;;;1.40;;
20824;SDS011;10573;50.936;6.978;2023-02-28T09:03:12;3.85;;;1.50;;
20824;SDS011;10573;50.936;6.978;2023-02-28T09:05:37;3.07;;;1.13;;
20824;SDS011;10573;50.936;6.978;2023-02-28T09:08:03;1.20;;;1.10;;
20824;SDS011;10573;50.936;6.978;2023-02-28T09:10:28;2.42;;;1.10;;
20824;SDS011;10573;50.936;6.978;2023-02-28T09:12:54;1.77;;;1.27;;
20824;SDS011;10573;50.936;6.978;2023-02-28T09:15:19;1.40;;;1.20;;
20824;SDS011;10573;50.936;6.978;2023-02-28T09:17:44;1.80;;;1.20;;
20824;SDS011;10573;50.936;6.978;2023-02-28T09:20:10;1.57;;;1.10;;
20824;SDS011;10573;50.936;6.978;2023-02-28T09:22:36;1.73;;;1.08;;
20824;SDS011;10573;50.936;6.978;2023-02-28T09:25:01;1.80;;;1.20;;
20824;SDS011;10573;50.936;6.978;2023-02-28T09:27:27;1.53;;;1.10;;
20824;SDS011;10573;50.936;6.978;2023-02-28T09:29:52;1.50;;;1.10;;
20824;SDS011;10573;50.936;6.978;2023-02-28T09:32:18;1.50;;;1.30;;
20824;SDS011;10573;50.936;6.978;2023-02-28T09:34:43;4.20;;;1.10;;
20824;SDS011;10573;50.936;6.978;2023-02-28T09:37:08;1.33;;;0.90;;
20824;SDS011;10573;50.936;6.978;2023-02-28T09:39:34;2.30;;;1.03;;
20824;SDS011;10573;50.936;6.978;2023-02-28T09:41:59;1.23;;;0.90;;
20824;SDS011;10573;50.936;6.978;2023-02-28T09:44:31;2.20;;;1.30;;
20824;SDS011;10573;50.936;6.978;2023-02-28T09:47:25;3.40;;;1.20;;
20824;SDS011;10573;50.936;6.978;2023-02-28T09:49:53;1.98;;;1.23;;
20824;SDS011;10573;50.936;6.978;2023-02-28T09:52:21;2.50;;;1.23;;
20824;SDS011;10573;50.936;6.978;2023-02-28T09:54:53;2.00;;;1.20;;
20824;SDS011;10573;50.936;6.978;2023-02-28T09:57:32;2.90;;;1.45;;
20824;SDS011;10573;50.936;6.978;2023-02-28T10:00:03;1.95;;;1.20;;
20824;SDS011;10573;50.936;6.978;2023-02-28T10:05:18;2.83;;;1.10;;
20824;SDS011;10573;50.936;6.978;2023-02-28T10:12:56;3.28;;;1.10;;
20824;SDS011;10573;50.936;6.978;2023-02-28T10:15:24;1.70;;;1.50;;
20824;SDS011;10573;50.936;6.978;2023-02-28T10:17:56;4.00;;;1.40;;
20824;SDS011;10573;50.936;6.978;2023-02-28T10:20:25;2.28;;;1.60;;
20824;SDS011;10573;50.936;6.978;2023-02-28T10:22:58;1.70;;;1.40;;
20824;SDS011;10573;50.936;6.978;2023-02-28T10:25:33;4.00;;;2.10;;
20824;SDS011;10573;50.936;6.978;2023-02-28T10:28:12;4.13;;;1.70;;
20824;SDS011;10573;50.936;6.978;2023-02-28T10:30:42;2.58;;;1.27;;
20824;SDS011;10573;50.936;6.978;2023-02-28T10:33:24;2.03;;;1.35;;
20824;SDS011;10573;50.936;6.978;2023-02-28T10:35:53;11.90;;;2.28;;
20824;SDS011;10573;50.936;6.978;2023-02-28T10:38:21;1.80;;;1.42;;
20824;SDS011;10573;50.936;6.978;2023-02-28T10:40:51;3.38;;;1.30;;
20824;SDS011;10573;50.936;6.978;2023-02-28T10:43:27;3.38;;;1.20;;
20824;SDS011;10573;50.936;6.978;2023-02-28T10:45:57;2.00;;;1.47;;
20824;SDS011;10573;50.936;6.978;2023-02-28T10:48:26;1.73;;;1.40;;
20824;SDS011;10573;50.936;6.978;2023-02-28T10:50:55;2.70;;;1.40;;
20824;SDS011;10573;50.936;6.978;2023-02-28T11:01:17;5.25;;;1.85;;
20824;SDS011;10573;50.936;6.978;2023-02-28T11:04:11;2.85;;;1.63;;
20824;SDS011;10573;50.936;6.978;2023-02-28T11:06:43;3.30;;;1.48;;
20824;SDS011;10573;50.936;6.978;2023-02-28T11:09:16;6.00;;;1.90;;
20824;SDS011;10573;50.936;6.978;2023-02-28T11:11:47;2.60;;;1.40;;
20824;SDS011;10573;50.936;6.978;2023-02-28T11:17:24;3.65;;;1.35;;
20824;SDS011;10573;50.936;6.978;2023-02-28T11:20:04;2.45;;;1.40;;
20824;SDS011;10573;50.936;6.978;2023-02-28T11:22:36;1.98;;;1.50;;
20824;SDS011;10573;50.936;6.978;2023-02-28T11:25:37;4.43;;;1.70;;
20824;SDS011;10573;50.936;6.978;2023-02-28T11:27:58;3.00;;;1.50;;
20824;SDS011;10573;50.936;6.978;2023-02-28T11:33:50;2.80;;;1.40;;
20824;SDS011;10573;50.936;6.978;2023-02-28T11:36:12;1.92;;;1.50;;
20824;SDS011;10573;50.936;6.978;2023-02-28T11:38:46;3.28;;;1.52;;
20824;SDS011;10573;50.936;6.978;2023-02-28T11:43:46;2.83;;;1.60;;
20824;SDS011;10573;50.936;6.978;2023-02-28T11:49:13;1.52;;;1.20;;
20824;SDS011;10573;50.936;6.978;2023-02-28T11:57:16;2.77;;;1.30;;
20824;SDS011;10573;50.936;6.978;2023-02-28T12:00:03;3.42;;;2.28;;
20824;SDS011;10573;50.936;6.978;2023-02-28T12:05:40;2.77;;;1.60;;
20824;SDS011;10573;50.936;6.978;2023-02-28T12:11:06;2.90;;;1.38;;
20824;SDS011;10573;50.936;6.978;2023-02-28T12:13:50;2.33;;;1.50;;
20824;SDS011;10573;50.936;6.978;2023-02-28T12:21:53;2.47;;;1.65;;
20824;SDS011;10573;50.936;6.978;2023-02-28T12:27:25;1.60;;;1.40;;
20824;SDS011;10573;50.936;6.978;2023-02-28T12:29:56;1.90;;;1.30;;
20824;SDS011;10573;50.936;6.978;2023-02-28T12:32:30;1.73;;;1.37;;
20824;SDS011;10573;50.936;6.978;2023-02-28T12:40:45;2.00;;;1.30;;
20824;SDS011;10573;50.936;6.978;2023-02-28T12:43:16;2.33;;;1.60;;
20824;SDS011;10573;50.936;6.978;2023-02-28T12:48:18;1.50;;;1.40;;
20824;SDS011;10573;50.936;6.978;2023-02-28T12:50:50;2.13;;;1.57;;
20824;SDS011;10573;50.936;6.978;2023-02-28T12:53:24;1.67;;;1.50;;
20824;SDS011;10573;50.936;6.978;2023-02-28T12:56:09;3.43;;;1.40;;
20824;SDS011;10573;50.936;6.978;2023-02-28T12:58:39;4.37;;;2.03;;
20824;SDS011;10573;50.936;6.978;2023-02-28T13:09:32;1.43;;;1.33;;
20824;SDS011;10573;50.936;6.978;2023-02-28T13:11:58;3.17;;;1.57;;
20824;SDS011;10573;50.936;6.978;2023-02-28T13:14:26;1.60;;;1.50;;
20824;SDS011;10573;50.936;6.978;2023-02-28T13:19:45;4.43;;;1.97;;
20824;SDS011;10573;50.936;6.978;2023-02-28T13:24:50;2.27;;;2.00;;
20824;SDS011;10573;50.936;6.978;2023-02-28T13:29:49;2.10;;;1.33;;
20824;SDS011;10573;50.936;6.978;2023-02-28T13:39:46;3.03;;;1.57;;
20824;SDS011;10573;50.936;6.978;2023-02-28T13:43:14;2.70;;;1.80;;
20824;SDS011;10573;50.936;6.978;2023-02-28T13:47:58;1.83;;;1.53;;
20824;SDS011;10573;50.936;6.978;2023-02-28T13:55:58;2.80;;;1.70;;
20824;SDS011;10573;50.936;6.978;2023-02-28T13:58:52;2.60;;;1.70;;
20824;SDS011;10573;50.936;6.978;2023-02-28T14:07:04;3.90;;;1.67;;
20824;SDS011;10573;50.936;6.978;2023-02-28T14:09:35;3.93;;;3.10;;
20824;SDS011;10573;50.936;6.978;2023-02-28T14:17:52;2.03;;;1.70;;
20824;SDS011;10573;50.936;6.978;2023-02-28T14:20:20;4.25;;;1.90;;
20824;SDS011;10573;50.936;6.978;2023-02-28T14:31:06;3.33;;;1.85;;
20824;SDS011;10573;50.936;6.978;2023-02-28T14:36:37;4.90;;;2.67;;
20824;SDS011;10573;50.936;6.978;2023-02-28T14:39:07;2.45;;;1.90;;
20824;SDS011;10573;50.936;6.978;2023-02-28T14:41:39;2.40;;;2.15;;
20824;SDS011;10573;50.936;6.978;2023-02-28T14:46:54;3.70;;;2.00;;
20824;SDS011;10573;50.936;6.978;2023-02-28T14:49:29;2.07;;;1.60;;
20824;SDS011;10573;50.936;6.978;2023-02-28T14:52:13;1.80;;;1.63;;
20824;SDS011;10573;50.936;6.978;2023-02-28T14:54:42;2.17;;;1.63;;
20824;SDS011;10573;50.936;6.978;2023-02-28T14:57:23;3.33;;;1.73;;
20824;SDS011;10573;50.936;6.978;2023-02-28T14:59:56;2.27;;;1.97;;
20824;SDS011;10573;50.936;6.978;2023-02-28T15:05:50;2.67;;;1.90;;
20824;SDS011;10573;50.936;6.978;2023-02-28T15:10:29;1.90;;;1.60;;
20824;SDS011;10573;50.936;6.978;2023-02-28T15:13:02;3.20;;;2.33;;
20824;SDS011;10573;50.936;6.978;2023-02-28T15:18:06;2.30;;;1.92;;
20824;SDS011;10573;50.936;6.978;2023-02-28T15:20:35;3.53;;;2.20;;
20824;SDS011;10573;50.936;6.978;2023-02-28T15:23:04;2.47;;;2.00;;
20824;SDS011;10573;50.936;6.978;2023-02-28T15:25:30;3.03;;;2.20;;
20824;SDS011;10573;50.936;6.978;2023-02-28T15:27:56;3.58;;;2.15;;
20824;SDS011;10573;50.936;6.978;2023-02-28T15:30:26;3.00;;;2.30;;
20824;SDS011;10573;50.936;6.978;2023-02-28T15:35:31;4.25;;;2.35;;
20824;SDS011;10573;50.936;6.978;2023-02-28T15:38:00;3.63;;;2.50;;
20824;SDS011;10573;50.936;6.978;2023-02-28T15:40:31;2.58;;;2.13;;
20824;SDS011;10573;50.936;6.978;2023-02-28T15:43:06;3.33;;;2.20;;
20824;SDS011;10573;50.936;6.978;2023-02-28T15:48:22;3.38;;;2.50;;
20824;SDS011;10573;50.936;6.978;2023-02-28T15:50:51;2.90;;;2.33;;
20824;SDS011;10573;50.936;6.978;2023-02-28T15:53:47;3.92;;;2.38;;
20824;SDS011;10573;50.936;6.978;2023-02-28T15:56:24;4.13;;;2.13;;
20824;SDS011;10573;50.936;6.978;2023-02-28T15:58:55;3.88;;;2.00;;
20824;SDS011;10573;50.936;6.978;2023-02-28T16:01:26;3.95;;;2.70;;
20824;SDS011;10573;50.936;6.978;2023-02-28T16:03:55;3.38;;;2.00;;
20824;SDS011;10573;50.936;6.978;2023-02-28T16:06:33;3.58;;;2.20;;
20824;SDS011;10573;50.936;6.978;2023-02-28T16:09:00;2.92;;;2.10;;
20824;SDS011;10573;50.936;6.978;2023-02-28T16:11:26;2.78;;;2.45;;
20824;SDS011;10573;50.936;6.978;2023-02-28T16:13:52;4.13;;;2.22;;
20824;SDS011;10573;50.936;6.978;2023-02-28T16:16:20;3.55;;;2.10;;
20824;SDS011;10573;50.936;6.978;2023-02-28T16:18:49;5.45;;;2.20;;
20824;SDS011;10573;50.936;6.978;2023-02-28T16:21:14;2.67;;;2.13;;
20824;SDS011;10573;50.936;6.978;2023-02-28T16:23:40;2.50;;;1.83;;
20824;SDS011;10573;50.936;6.978;2023-02-28T16:26:06;3.57;;;2.00;;
20824;SDS011;10573;50.936;6.978;2023-02-28T16:28:34;3.50;;;1.97;;
20824;SDS011;10573;50.936;6.978;2023-02-28T16:31:02;5.40;;;2.25;;
20824;SDS011;10573;50.936;6.978;2023-02-28T16:33:32;6.75;;;4.53;;
20824;SDS011;10573;50.936;6.978;2023-02-28T16:35:58;2.53;;;2.03;;
20824;SDS011;10573;50.936;6.978;2023-02-28T16:38:24;4.70;;;2.30;;
20824;SDS011;10573;50.936;6.978;2023-02-28T16:40:50;4.07;;;2.10;;
20824;SDS011;10573;50.936;6.978;2023-02-28T16:43:18;4.78;;;2.28;;
20824;SDS011;10573;50.936;6.978;2023-02-28T16:45:47;2.60;;;2.20;;
20824;SDS011;10573;50.936;6.978;2023-02-28T16:48:14;3.90;;;2.67;;
20824;SDS011;10573;50.936;6.978;2023-02-28T16:50:40;3.15;;;2.00;;
20824;SDS011;10573;50.936;6.978;2023-02-28T16:53:07;4.82;;;2.20;;
20824;SDS011;10573;50.936;6.978;2023-02-28T16:55:32;3.90;;;2.27;;
20824;SDS011;10573;50.936;6.978;2023-02-28T16:58:00;4.43;;;2.20;;
20824;SDS011;10573;50.936;6.978;2023-02-28T17:00:28;3.60;;;2.33;;
20824;SDS011;10573;50.936;6.978;2023-02-28T17:02:54;3.28;;;2.53;;
20824;SDS011;10573;50.936;6.978;2023-02-28T17:05:20;4.38;;;2.50;;
20824;SDS011;10573;50.936;6.978;2023-02-28T17:07:46;4.40;;;2.20;;
20824;SDS011;10573;50.936;6.978;2023-02-28T17:10:20;3.50;;;2.20;;
20824;SDS011;10573;50.936;6.978;2023-02-28T17:12:47;2.57;;;2.37;;
20824;SDS011;10573;50.936;6.978;2023-02-28T17:15:13;2.93;;;1.97;;
20824;SDS011;10573;50.936;6.978;2023-02-28T17:17:40;3.95;;;2.17;;
20824;SDS011;10573;50.936;6.978;2023-02-28T17:20:09;3.15;;;2.30;;
20824;SDS011;10573;50.936;6.978;2023-02-28T17:22:37;4.13;;;2.58;;
20824;SDS011;10573;50.936;6.978;2023-02-28T17:25:03;3.72;;;2.40;;
20824;SDS011;10573;50.936;6.978;2023-02-28T17:27:30;4.23;;;2.53;;
20824;SDS011;10573;50.936;6.978;2023-02-28T17:29:55;3.83;;;2.43;;
20824;SDS011;10573;50.936;6.978;2023-02-28T17:32:21;4.07;;;2.38;;
20824;SDS011;10573;50.936;6.978;2023-02-28T17:34:46;3.57;;;2.50;;
20824;SDS011;10573;50.936;6.978;2023-02-28T17:37:11;3.80;;;2.47;;
20824;SDS011;10573;50.936;6.978;2023-02-28T17:39:37;3.07;;;2.20;;
20824;SDS011;10573;50.936;6.978;2023-02-28T17:42:02;6.40;;;2.80;;
20824;SDS011;10573;50.936;6.978;2023-02-28T17:44:28;5.63;;;2.90;;
20824;SDS011;10573;50.936;6.978;2023-02-28T17:46:53;4.47;;;2.67;;
20824;SDS011;10573;50.936;6.978;2023-02-28T17:49:20;4.68;;;2.67;;